createdAt,value
2023-03-02T00:01:08.569Z,102253.28
2023-03-02T00:03:43.262Z,102250.59
2023-03-02T00:06:15.457Z,102241.50
2023-03-02T00:08:48.415Z,102250.25
2023-03-02T00:11:19.983Z,102247.69
2023-03-02T00:13:51.980Z,102250.03
2023-03-02T00:16:26.327Z,102244.09
2023-03-02T00:18:58.918Z,102255.09
2023-03-02T00:21:31.973Z,102251.00
2023-03-02T00:24:04.095Z,102251.91
2023-03-02T00:26:37.418Z,102254.22
2023-03-02T00:29:09.457Z,102257.84
2023-03-02T00:31:43.851Z,102257.53
2023-03-02T00:34:17.136Z,102253.06
2023-03-02T00:36:49.771Z,102254.28
2023-03-02T00:39:21.992Z,102255.19
2023-03-02T00:41:53.959Z,102246.00
2023-03-02T00:44:26.158Z,102251.97
2023-03-02T00:47:00.724Z,102242.28
2023-03-02T00:49:33.194Z,102240.00
2023-03-02T00:52:05.133Z,102239.84
2023-03-02T00:55:15.931Z,102238.06
2023-03-02T00:58:12.453Z,102245.41
2023-03-02T01:00:53.433Z,102247.72
2023-03-02T01:03:28.353Z,102251.19
2023-03-02T01:06:01.061Z,102248.19
2023-03-02T01:08:33.173Z,102243.47
2023-03-02T01:11:05.516Z,102237.31
2023-03-02T01:13:37.338Z,102236.34
2023-03-02T01:16:10.431Z,102233.53
2023-03-02T01:18:45.102Z,102237.81
2023-03-02T01:21:19.334Z,102231.66
2023-03-02T01:23:51.986Z,102228.84
2023-03-02T01:26:24.214Z,102221.94
2023-03-02T01:28:56.609Z,102216.16
2023-03-02T01:31:30.168Z,102223.44
2023-03-02T01:34:04.821Z,102216.59
2023-03-02T01:36:37.364Z,102222.34
2023-03-02T01:39:09.278Z,102214.53
2023-03-02T01:41:41.671Z,102214.59
2023-03-02T01:44:42.523Z,102214.66
2023-03-02T01:47:19.419Z,102217.84
2023-03-02T01:49:59.838Z,102220.84
2023-03-02T01:52:35.092Z,102210.88
2023-03-02T01:55:12.601Z,102209.75
2023-03-02T01:57:49.864Z,102198.31
2023-03-02T02:00:25.854Z,102199.44
2023-03-02T02:03:09.699Z,102197.59
2023-03-02T02:05:47.641Z,102197.19
2023-03-02T02:08:20.119Z,102188.16
2023-03-02T02:10:52.338Z,102184.03
2023-03-02T02:13:24.742Z,102190.50
2023-03-02T02:15:56.960Z,102190.69
2023-03-02T02:18:29.915Z,102187.00
2023-03-02T02:21:05.298Z,102192.88
2023-03-02T02:23:43.524Z,102184.41
2023-03-02T02:26:35.528Z,102189.22
2023-03-02T02:29:14.837Z,102195.69
2023-03-02T02:31:54.569Z,102185.75
2023-03-02T02:34:35.835Z,102183.22
2023-03-02T02:37:22.967Z,102192.50
2023-03-02T02:40:58.042Z,102190.28
2023-03-02T02:44:46.337Z,102192.50
2023-03-02T02:47:24.214Z,102186.88
2023-03-02T02:49:58.323Z,102182.00
2023-03-02T02:52:32.194Z,102184.13
2023-03-02T02:55:04.345Z,102182.19
2023-03-02T02:57:36.122Z,102187.13
2023-03-02T03:00:12.490Z,102180.34
2023-03-02T03:02:48.554Z,102177.25
2023-03-02T03:05:20.951Z,102182.19
2023-03-02T03:07:53.452Z,102178.91
2023-03-02T03:10:35.257Z,102172.44
2023-03-02T03:13:06.854Z,102171.91
2023-03-02T03:15:39.484Z,102178.63
2023-03-02T03:18:13.768Z,102182.59
2023-03-02T03:20:49.831Z,102177.88
2023-03-02T03:23:22.124Z,102175.91
2023-03-02T03:25:53.714Z,102166.34
2023-03-02T03:28:24.885Z,102167.38
2023-03-02T03:30:56.662Z,102172.38
2023-03-02T03:33:33.464Z,102177.25
2023-03-02T03:36:05.109Z,102174.66
2023-03-02T03:38:36.786Z,102174.84
2023-03-02T03:41:08.982Z,102173.13
2023-03-02T03:43:41.814Z,102174.34
2023-03-02T03:46:14.149Z,102169.47
2023-03-02T03:48:48.068Z,102170.81
2023-03-02T03:51:22.672Z,102173.13
2023-03-02T03:54:00.473Z,102169.84
2023-03-02T03:56:34.212Z,102168.81
2023-03-02T03:59:10.820Z,102164.59
2023-03-02T04:01:46.765Z,102177.00
2023-03-02T04:04:23.914Z,102178.22
2023-03-02T04:06:57.540Z,102175.31
2023-03-02T04:09:32.298Z,102171.34
2023-03-02T04:12:03.938Z,102163.22
2023-03-02T04:14:35.519Z,102159.41
2023-03-02T04:17:08.030Z,102147.78
2023-03-02T04:19:45.912Z,102158.50
2023-03-02T04:22:20.285Z,102160.97
2023-03-02T04:24:52.488Z,102167.72
2023-03-02T04:27:25.445Z,102162.59
2023-03-02T04:29:57.368Z,102172.31
2023-03-02T04:32:29.297Z,102172.25
2023-03-02T04:35:02.832Z,102170.69
2023-03-02T04:37:34.250Z,102175.06
2023-03-02T04:40:09.163Z,102171.47
2023-03-02T04:42:40.804Z,102182.59
2023-03-02T04:45:15.721Z,102185.41
2023-03-02T04:47:47.184Z,102187.53
2023-03-02T04:50:20.914Z,102188.84
2023-03-02T04:52:53.959Z,102196.88
2023-03-02T04:55:28.876Z,102192.72
2023-03-02T04:58:00.875Z,102190.38
2023-03-02T05:00:35.519Z,102184.50
2023-03-02T05:03:08.020Z,102181.84
2023-03-02T05:05:42.575Z,102186.31
2023-03-02T05:08:15.116Z,102172.88
2023-03-02T05:10:46.676Z,102178.34
2023-03-02T05:13:18.755Z,102170.25
2023-03-02T05:15:51.930Z,102168.44
2023-03-02T05:18:24.415Z,102169.47
2023-03-02T05:20:58.848Z,102168.06
2023-03-02T05:23:31.854Z,102166.97
2023-03-02T05:26:03.356Z,102172.03
2023-03-02T05:28:35.438Z,102177.09
2023-03-02T05:31:07.452Z,102177.44
2023-03-02T05:33:38.881Z,102173.50
2023-03-02T05:36:12.550Z,102180.34
2023-03-02T05:38:44.309Z,102174.78
2023-03-02T05:41:15.253Z,102175.06
2023-03-02T05:43:46.685Z,102180.13
2023-03-02T05:46:18.169Z,102173.84
2023-03-02T05:48:50.053Z,102170.53
2023-03-02T05:51:23.639Z,102169.56
2023-03-02T05:53:54.996Z,102164.69
2023-03-02T05:56:25.923Z,102170.69
2023-03-02T05:58:57.271Z,102166.25
2023-03-02T06:01:28.120Z,102174.47
2023-03-02T06:03:59.919Z,102172.16
2023-03-02T06:06:34.196Z,102177.22
2023-03-02T06:09:05.917Z,102184.16
2023-03-02T06:11:36.793Z,102185.50
2023-03-02T06:14:08.356Z,102190.34
2023-03-02T06:16:39.295Z,102189.78
2023-03-02T06:19:10.919Z,102187.94
2023-03-02T06:21:44.413Z,102197.63
2023-03-02T06:24:15.886Z,102197.06
2023-03-02T06:26:47.144Z,102195.94
2023-03-02T06:29:18.423Z,102200.13
2023-03-02T06:31:49.766Z,102192.38
2023-03-02T06:34:21.395Z,102202.22
2023-03-02T06:36:55.315Z,102195.28
2023-03-02T06:39:27.063Z,102198.06
2023-03-02T06:41:59.492Z,102196.91
2023-03-02T06:44:31.102Z,102201.03
2023-03-02T06:47:02.473Z,102204.94
2023-03-02T06:49:34.155Z,102202.19
2023-03-02T06:52:08.231Z,102199.94
2023-03-02T06:54:40.117Z,102208.81
2023-03-02T06:57:11.581Z,102212.00
2023-03-02T06:59:43.119Z,102207.34
2023-03-02T07:02:14.952Z,102210.28
2023-03-02T07:04:46.618Z,102207.50
2023-03-02T07:07:20.232Z,102210.13
2023-03-02T07:09:51.580Z,102217.94
2023-03-02T07:12:22.447Z,102214.91
2023-03-02T07:14:53.870Z,102213.31
2023-03-02T07:17:24.649Z,102215.44
2023-03-02T07:19:55.903Z,102212.06
2023-03-02T07:22:29.576Z,102219.03
2023-03-02T07:25:00.912Z,102213.03
2023-03-02T07:27:31.937Z,102206.81
2023-03-02T07:30:03.429Z,102211.06
2023-03-02T07:32:34.641Z,102207.75
2023-03-02T07:35:06.197Z,102209.63
2023-03-02T07:37:39.789Z,102215.13
2023-03-02T07:40:13.571Z,102213.31
2023-03-02T07:42:44.459Z,102216.56
2023-03-02T07:45:16.952Z,102218.28
2023-03-02T07:47:47.977Z,102220.94
2023-03-02T07:50:19.955Z,102220.25
2023-03-02T07:52:53.597Z,102222.09
2023-03-02T07:55:24.916Z,102214.84
2023-03-02T07:57:55.962Z,102215.34
2023-03-02T08:00:27.887Z,102217.81
2023-03-02T08:02:58.938Z,102216.56
2023-03-02T08:05:30.528Z,102219.22
2023-03-02T08:08:04.179Z,102214.16
2023-03-02T08:10:37.216Z,102211.59
2023-03-02T08:13:10.320Z,102213.38
2023-03-02T08:15:41.731Z,102207.94
2023-03-02T08:18:15.091Z,102205.88
2023-03-02T08:20:46.332Z,102215.69
2023-03-02T08:23:19.869Z,102209.13
2023-03-02T08:25:51.376Z,102210.69
2023-03-02T08:28:23.061Z,102213.59
2023-03-02T08:31:00.756Z,102208.63
2023-03-02T08:33:33.186Z,102218.56
2023-03-02T08:36:07.718Z,102211.94
2023-03-02T08:38:41.794Z,102211.25
2023-03-02T08:41:15.524Z,102205.56
2023-03-02T08:43:46.869Z,102207.59
2023-03-02T08:46:20.154Z,102196.34
2023-03-02T08:48:52.764Z,102205.88
2023-03-02T08:51:27.375Z,102218.34
2023-03-02T08:54:00.878Z,102206.69
2023-03-02T08:56:34.206Z,102206.28
2023-03-02T08:59:08.053Z,102201.94
2023-03-02T09:01:40.780Z,102200.16
2023-03-02T09:04:13.586Z,102188.63
2023-03-02T09:06:47.701Z,102185.66
2023-03-02T09:09:21.468Z,102186.03
2023-03-02T09:11:52.997Z,102187.81
2023-03-02T09:14:27.403Z,102170.75
2023-03-02T09:16:59.034Z,102167.91
2023-03-02T09:19:30.333Z,102168.47
2023-03-02T09:22:01.785Z,102163.66
2023-03-02T09:24:35.974Z,102164.00
2023-03-02T09:27:08.250Z,102165.22
2023-03-02T09:29:39.526Z,102166.56
2023-03-02T09:32:12.142Z,102174.06
2023-03-02T09:34:43.544Z,102175.38
2023-03-02T09:37:16.369Z,102166.44
2023-03-02T09:39:50.242Z,102173.91
2023-03-02T09:42:45.730Z,102165.22
2023-03-02T09:45:28.444Z,102166.19
2023-03-02T09:48:14.112Z,102170.59
2023-03-02T13:37:46.992Z,101996.59
2023-03-02T13:40:40.790Z,102011.00
2023-03-02T13:43:36.900Z,102008.63
2023-03-02T13:46:27.907Z,102006.53
2023-03-02T21:31:59.654Z,102002.28
2023-03-02T21:34:32.917Z,102005.00
2023-03-02T21:37:04.785Z,102015.44
2023-03-02T21:39:37.542Z,102012.63
2023-03-02T21:42:09.732Z,102002.47
2023-03-02T21:44:42.057Z,102005.59
2023-03-02T21:47:16.798Z,102003.50
2023-03-02T21:49:48.806Z,101996.97
2023-03-02T21:52:20.526Z,101998.59
2023-03-02T21:54:52.863Z,101991.44
2023-03-02T21:57:24.848Z,101994.75
2023-03-02T21:59:57.788Z,102000.50
2023-03-02T22:02:32.368Z,101993.00
2023-03-02T22:05:04.856Z,101994.44
2023-03-02T22:07:36.884Z,101989.09
2023-03-02T22:10:11.219Z,101985.56
2023-03-02T22:12:45.132Z,101982.63
2023-03-02T22:15:21.550Z,101978.00
2023-03-02T22:17:57.090Z,101980.16
2023-03-02T22:20:29.942Z,101984.50
2023-03-02T22:23:02.794Z,101979.63
2023-03-02T22:25:35.106Z,101983.34
2023-03-02T22:28:16.562Z,101976.53
2023-03-02T22:30:48.811Z,101976.28
2023-03-02T22:33:26.123Z,101980.47
2023-03-02T22:36:05.164Z,101980.00
2023-03-02T22:38:37.090Z,101976.16
2023-03-02T22:41:13.533Z,101965.13
2023-03-02T22:43:46.107Z,101965.22
2023-03-02T22:46:22.065Z,101960.69
2023-03-02T22:48:57.593Z,101954.72
2023-03-02T22:51:33.209Z,101954.22
2023-03-02T22:54:05.660Z,101955.41
2023-03-02T22:59:51.725Z,101959.38
2023-03-02T23:02:26.365Z,101955.88
2023-03-02T23:05:03.533Z,101958.09
2023-03-02T23:07:35.462Z,101951.31
2023-03-02T23:10:07.630Z,101942.69
2023-03-02T23:12:39.579Z,101933.56
2023-03-02T23:15:20.269Z,101931.94
2023-03-02T23:17:52.812Z,101939.28
2023-03-02T23:20:30.037Z,101935.66
2023-03-02T23:23:01.737Z,101930.78
2023-03-02T23:25:45.370Z,101926.06
2023-03-02T23:28:18.104Z,101923.75
2023-03-02T23:30:50.517Z,101917.59
2023-03-02T23:33:22.833Z,101911.69
2023-03-02T23:35:57.887Z,101912.03
2023-03-02T23:38:30.627Z,101930.81
2023-03-02T23:41:02.703Z,101935.56
2023-03-02T23:43:49.346Z,101934.50
2023-03-02T23:46:24.645Z,101936.38
2023-03-02T23:48:56.536Z,101943.78
2023-03-02T23:51:31.604Z,101939.25
2023-03-02T23:54:04.758Z,101941.97
2023-03-02T23:56:37.134Z,101948.03
2023-03-02T23:59:09.375Z,101943.59
